Terminal Aerodrome Forecast
Issued by NWS Cleveland, OH

Home | Current Version | Previous Version | Graphics & Text | Print | Product List | Glossary On
Versions: 1 2 3 4 5 6 7 8 9 10 11 12 13 14 15 16 17
000
FTUS41 KCLE 191100
TAFTOL
TAF
KTOL 191120Z 1912/2012 00000KT 6SM -SHRA BKN025 OVC040
      TEMPO 1912/1915 4SM -SHRA SCT015 BKN020
     FM191500 VRB03KT P6SM VCSH OVC035
     FM191900 VRB03KT P6SM SCT035 BKN050
     FM192200 VRB03KT P6SM SCT035=

USA.gov is the U.S. government's official web portal to all federal, state and local government web resources and services.